Time;durP1;ratioP1;P1;durP2;ratioP2;P2;SDS_P1;SDS_P2;PMS_P1;PMS_P2;Temp;Humidity;BMP_temperature;BMP_pressure;BME280_temperature;BME280_humidity;BME280_pressure;Samples;Min_cycle;Max_cycle;Signal;HPM_P1;HPM_P2
2022/11/13 00:07:54;;;;;;;3.77;2.07;;;;;;;;;;21130741;28;20960;-69
2022/11/13 00:18:15;;;;;;;2.77;1.70;;;;;;;;;;21142126;28;20653;-69
2022/11/13 00:28:35;;;;;;;3.60;2.10;;;;;;;;;;21127965;28;20300;-69
2022/11/13 00:38:56;;;;;;;4.00;2.13;;;;;;;;;;21153654;28;20680;-69
2022/11/13 00:49:17;;;;;;;4.63;3.10;;;;;;;;;;21127034;28;20208;-69
2022/11/13 00:59:38;;;;;;;4.07;2.40;;;;;;;;;;21129665;28;20289;-69
2022/11/13 01:09:59;;;;;;;2.50;1.53;;;;;;;;;;21125825;28;20204;-69
2022/11/13 01:20:23;;;;;;;3.53;2.07;;;7.20;99.90;;;;;;21141266;28;20272;-69
2022/11/13 01:30:44;;;;;;;3.93;2.60;;;;;;;;;;21127586;28;20223;-69
2022/11/13 01:41:05;;;;;;;5.80;2.73;;;;;;;;;;21139168;28;20247;-69
2022/11/13 01:51:29;;;;;;;4.73;2.97;;;;;;;;;;21124680;28;20219;-69
2022/11/13 02:01:49;;;;;;;4.27;2.50;;;7.90;99.90;;;;;;21138089;28;20300;-69
2022/11/13 02:12:15;;;;;;;4.30;2.53;;;7.20;99.90;;;;;;21120940;28;20567;-69
2022/11/13 02:22:48;;;;;;;3.87;2.33;;;;;;;;;;21123368;28;20220;-69
2022/11/13 02:33:20;;;;;;;3.90;2.37;;;;;;;;;;21134423;28;20647;-69
2022/11/13 02:43:41;;;;;;;3.93;2.10;;;;;;;;;;21136288;28;20245;-69
2022/11/13 02:54:02;;;;;;;3.60;2.47;;;;;;;;;;21114532;28;20223;-69
2022/11/13 03:04:22;;;;;;;6.47;2.30;;;;;;;;;;21122861;28;20670;-69
2022/11/13 03:14:42;;;;;;;3.90;2.20;;;;;;;;;;21128530;28;20683;-69
2022/11/13 03:25:09;;;;;;;2.40;1.57;;;;;;;;;;21134769;28;20219;-69
2022/11/13 03:35:29;;;;;;;2.53;1.60;;;;;;;;;;21062120;28;20519;-64
2022/11/13 03:45:50;;;;;;;3.17;1.77;;;;;;;;;;21049114;28;20188;-64
2022/11/13 03:56:10;;;;;;;2.00;1.20;;;;;;;;;;21048506;28;20216;-64
2022/11/13 04:06:31;;;;;;;2.03;1.13;;;;;;;;;;21047761;28;20204;-64
2022/11/13 04:16:51;;;;;;;5.77;1.47;;;;;;;;;;21046769;28;20208;-65
2022/11/13 04:27:11;;;;;;;2.67;1.63;;;;;;;;;;21046069;28;20273;-64
2022/11/13 04:37:32;;;;;;;1.93;1.20;;;;;;;;;;21044792;28;20270;-65
2022/11/13 04:47:52;;;;;;;2.10;1.23;;;;;;;;;;21043958;28;20200;-64
2022/11/13 04:58:13;;;;;;;5.33;1.40;;;;;;;;;;21043525;28;20208;-64
2022/11/13 05:08:33;;;;;;;1.43;1.10;;;6.50;99.90;;;;;;21042359;28;20208;-64
2022/11/13 05:18:54;;;;;;;2.10;1.20;;;;;;;;;;21059044;28;20237;-64
2022/11/13 05:29:15;;;;;;;1.53;0.97;;;;;;;;;;21054649;28;20216;-64
2022/11/13 05:39:35;;;;;;;1.97;1.37;;;;;;;;;;21037709;28;20251;-64
2022/11/13 05:49:55;;;;;;;2.23;1.20;;;;;;;;;;21070855;28;20200;-64
2022/11/13 06:00:16;;;;;;;2.13;1.20;;;6.60;99.90;;;;;;21055487;28;20228;-64
2022/11/13 06:10:37;;;;;;;2.27;1.37;;;;;;;;;;21038329;28;20216;-64
2022/11/13 06:21:05;;;;;;;1.87;1.30;;;;;;;;;;21054593;28;20777;-64
2022/11/13 06:31:27;;;;;;;4.10;1.50;;;;;;;;;;21054337;28;20629;-64
2022/11/13 06:41:47;;;;;;;2.70;1.30;;;;;;;;;;21052334;28;20756;-65
2022/11/13 06:52:07;;;;;;;2.50;1.27;;;;;;;;;;21070377;28;20269;-64
2022/11/13 07:02:28;;;;;;;2.17;1.17;;;;;;;;;;21067064;28;20289;-64
2022/11/13 07:12:48;;;;;;;2.07;1.20;;;;;;;;;;21087794;28;20212;-64
2022/11/13 07:23:09;;;;;;;2.53;1.40;;;;;;;;;;21050348;28;20325;-65
2022/11/13 07:33:29;;;;;;;3.03;1.77;;;;;;;;;;21067199;28;20289;-65
2022/11/13 07:43:49;;;;;;;9.50;2.10;;;;;;;;;;21045339;28;20691;-64
2022/11/13 07:54:10;;;;;;;2.80;1.50;;;;;;;;;;21065994;28;20628;-64
2022/11/13 08:04:31;;;;;;;4.13;2.03;;;;;;;;;;21064004;28;20254;-65
2022/11/13 08:14:51;;;;;;;2.53;1.33;;;;;;;;;;21054841;28;20628;-64
2022/11/13 08:25:11;;;;;;;2.63;1.63;;;;;;;;;;21041754;28;20220;-64
2022/11/13 08:35:32;;;;;;;2.87;1.50;;;;;;;;;;21043071;28;20224;-65
2022/11/13 08:45:53;;;;;;;2.50;1.67;;;8.40;99.90;;;;;;21058846;28;20228;-64
2022/11/13 08:56:13;;;;;;;3.07;2.03;;;;;;;;;;21043744;28;20614;-64
2022/11/13 09:06:33;;;;;;;3.27;1.80;;;6.90;99.90;;;;;;21044016;28;20204;-64
2022/11/13 09:16:53;;;;;;;3.47;2.10;;;;;;;;;;21039196;28;20582;-64
2022/11/13 09:27:14;;;;;;;2.40;1.70;;;;;;;;;;21080425;22;20277;-67
2022/11/13 09:37:35;;;;;;;3.13;2.00;;;;;;;;;;20979719;28;20233;-70
2022/11/13 09:47:57;;;;;;;5.37;2.10;;;;;;;;;;21002665;28;20740;-71
2022/11/13 09:58:34;;;;;;;3.37;2.17;;;7.10;99.90;;;;;;20959631;28;20225;-67
2022/11/13 10:09:14;;;;;;;2.87;1.83;;;;;;;;;;20980019;28;20496;-67
2022/11/13 10:19:42;;;;;;;5.40;3.27;;;;;;;;;;21022166;28;20342;-67
2022/11/13 10:30:03;;;;;;;5.63;4.43;;;;;;;;;;20958832;28;20695;-67
2022/11/13 10:40:28;;;;;;;3.90;2.43;;;;;;;;;;20947894;28;20286;-70
2022/11/13 10:50:52;;;;;;;3.67;2.57;;;;;;;;;;20967149;28;20217;-67
2022/11/13 11:01:22;;;;;;;2.90;2.10;;;9.10;99.90;;;;;;20966598;28;20744;-67
2022/11/13 11:22:28;;;;;;;3.50;2.77;;;;;;;;;;20972533;28;20269;-66
2022/11/13 11:32:59;;;;;;;3.43;2.23;;;9.10;99.90;;;;;;21018892;28;20246;-69
2022/11/13 11:43:19;;;;;;;3.17;2.30;;;;;;;;;;21069837;28;20289;-69
2022/11/13 11:54:17;;;;;;;3.60;2.80;;;9.30;99.90;;;;;;21069861;28;20201;-69
2022/11/13 12:04:52;;;;;;;3.37;2.50;;;;;;;;;;21039289;28;20252;-69
2022/11/13 12:15:15;;;;;;;5.20;3.17;;;;;;;;;;20982571;28;20213;-68
2022/11/13 12:25:41;;;;;;;5.13;3.43;;;;;;;;;;20982611;28;20254;-68
2022/11/13 12:36:02;;;;;;;5.33;3.63;;;;;;;;;;20984024;28;20239;-68
2022/11/13 12:46:32;;;;;;;6.10;3.90;;;;;;;;;;20984716;28;20274;-68
2022/11/13 12:56:53;;;;;;;5.83;4.00;;;;;;;;;;20991712;28;20251;-68
2022/11/13 13:07:28;;;;;;;7.00;4.60;;;;;;;;;;21001271;28;20544;-69
2022/11/13 13:17:49;;;;;;;5.60;3.53;;;;;;;;;;20985003;28;20593;-67
2022/11/13 13:28:09;;;;;;;6.53;4.07;;;;;;;;;;20981159;28;20258;-68
2022/11/13 13:38:33;;;;;;;6.03;3.83;;;;;;;;;;20993091;28;20322;-68
2022/11/13 13:48:55;;;;;;;3.90;2.83;;;;;;;;;;21013654;28;20256;-68
2022/11/13 13:59:20;;;;;;;4.43;2.20;;;9.90;99.90;;;;;;20981704;28;20238;-68
2022/11/13 14:09:41;;;;;;;2.87;1.83;;;;;;;;;;21034857;28;20350;-68
2022/11/13 14:20:01;;;;;;;2.73;1.73;;;;;;;;;;20982343;28;20225;-68
2022/11/13 14:30:26;;;;;;;2.70;1.63;;;;;;;;;;20976493;28;20228;-68
2022/11/13 14:40:47;;;;;;;2.60;1.60;;;9.40;99.90;;;;;;20960968;28;20590;-68
2022/11/13 14:51:21;;;;;;;2.27;1.33;;;;;;;;;;20974624;28;20213;-69
2022/11/13 15:01:53;;;;;;;1.90;1.10;;;9.10;99.90;;;;;;20990561;28;20340;-68
2022/11/13 15:12:14;;;;;;;3.13;1.57;;;;;;;;;;20994188;28;20631;-67
2022/11/13 15:22:37;;;;;;;3.97;2.17;;;;;;;;;;20998826;28;20255;-67
2022/11/13 15:32:58;;;;;;;3.80;2.47;;;;;;;;;;21068166;22;20224;-67
2022/11/13 15:43:19;;;;;;;5.67;1.40;;;;;;;;;;21077028;28;20232;-67
2022/11/13 15:53:39;;;;;;;3.60;1.43;;;;;;;;;;21075614;28;20660;-67
2022/11/13 16:04:01;;;;;;;2.37;1.20;;;;;;;;;;21078539;28;20224;-66
2022/11/13 16:14:21;;;;;;;2.00;1.10;;;;;;;;;;21077909;28;20258;-67
2022/11/13 16:24:43;;;;;;;5.53;2.53;;;;;;;;;;21075795;28;20253;-68
2022/11/13 16:35:03;;;;;;;4.10;2.30;;;;;;;;;;21065701;28;20276;-67
2022/11/13 16:45:25;;;;;;;3.53;2.10;;;;;;;;;;21067669;28;20293;-67
2022/11/13 16:55:46;;;;;;;3.07;1.40;;;;;;;;;;21075397;28;20196;-67
2022/11/13 17:06:12;;;;;;;2.00;1.40;;;;;;;;;;21066952;28;20216;-67
2022/11/13 17:16:33;;;;;;;1.60;1.10;;;;;;;;;;21113007;28;20219;-68
2022/11/13 17:26:53;;;;;;;2.43;1.23;;;;;;;;;;21156351;28;20274;-67
2022/11/13 17:37:13;;;;;;;4.20;2.23;;;;;;;;;;21140072;28;20787;-67
2022/11/13 17:47:34;;;;;;;3.03;1.40;;;;;;;;;;21064393;28;20208;-67
2022/11/13 17:57:58;;;;;;;2.20;1.60;;;8.10;99.90;;;;;;21068153;28;20245;-68
2022/11/13 18:08:19;;;;;;;2.30;1.47;;;8.10;99.90;;;;;;21096697;28;20207;-67
2022/11/13 18:18:40;;;;;;;2.00;1.20;;;;;;;;;;21110890;28;21046;-67
2022/11/13 18:29:01;;;;;;;3.07;1.93;;;7.90;99.90;;;;;;21061911;28;20250;-67
2022/11/13 18:39:21;;;;;;;2.10;1.40;;;;;;;;;;21058913;28;20204;-67
2022/11/13 18:49:42;;;;;;;2.00;1.37;;;;;;;;;;21062168;28;20567;-67
2022/11/13 19:00:03;;;;;;;4.30;1.30;;;;;;;;;;21061148;28;20220;-67
2022/11/13 19:10:23;;;;;;;1.70;1.10;;;;;;;;;;21057913;28;20212;-67
2022/11/13 19:20:44;;;;;;;3.30;1.40;;;;;;;;;;21055453;28;20230;-67
2022/11/13 19:31:15;;;;;;;3.57;2.30;;;7.50;99.90;;;;;;21053608;28;20293;-66
2022/11/13 19:41:35;;;;;;;2.90;1.20;;;;;;;;;;21056655;28;20205;-66
2022/11/13 19:51:55;;;;;;;1.90;1.10;;;;;;;;;;21068764;28;20204;-67
2022/11/13 20:02:16;;;;;;;1.80;1.17;;;;;;;;;;21068397;28;20308;-66
2022/11/13 20:12:37;;;;;;;2.50;1.50;;;;;;;;;;21070386;28;20209;-67
2022/11/13 20:22:57;;;;;;;3.53;1.97;;;7.00;99.90;;;;;;21072960;28;20797;-67
2022/11/13 20:33:18;;;;;;;3.83;1.90;;;;;;;;;;21073810;28;20254;-67
2022/11/13 20:43:38;;;;;;;3.07;1.93;;;;;;;;;;21073167;28;20281;-67
2022/11/13 20:53:59;;;;;;;2.43;1.60;;;;;;;;;;21069773;28;20242;-66
2022/11/13 21:04:20;;;;;;;1.90;1.20;;;;;;;;;;21068313;28;20228;-67
2022/11/13 21:14:40;;;;;;;1.80;1.23;;;;;;;;;;21068769;28;20265;-67
2022/11/13 21:25:01;;;;;;;1.93;1.50;;;;;;;;;;21067511;28;20756;-67
2022/11/13 21:35:21;;;;;;;4.03;1.83;;;;;;;;;;21077283;22;20273;-66
2022/11/13 21:45:42;;;;;;;2.90;1.70;;;;;;;;;;21060467;28;20240;-67
2022/11/13 21:56:02;;;;;;;4.27;2.20;;;;;;;;;;21048072;28;20208;-66
2022/11/13 22:06:32;;;;;;;4.53;2.27;;;;;;;;;;21065335;28;20556;-67
2022/11/13 22:16:53;;;;;;;4.87;3.50;;;;;;;;;;21065934;28;20687;-66
2022/11/13 22:27:13;;;;;;;6.33;3.30;;;;;;;;;;21065695;28;20204;-66
2022/11/13 22:37:33;;;;;;;4.60;2.43;;;;;;;;;;21065438;28;20269;-67
2022/11/13 22:47:54;;;;;;;7.30;3.80;;;;;;;;;;21065623;28;20242;-67
2022/11/13 22:58:15;;;;;;;6.80;3.90;;;;;;;;;;21064006;28;20293;-66
2022/11/13 23:08:37;;;;;;;6.43;3.73;;;;;;;;;;21045071;28;20565;-67
2022/11/13 23:18:59;;;;;;;5.20;3.63;;;;;;;;;;21068056;28;20232;-67
2022/11/13 23:29:19;;;;;;;5.00;2.87;;;;;;;;;;21079581;28;20200;-67
2022/11/13 23:39:39;;;;;;;4.83;2.97;;;;;;;;;;21062031;28;20232;-66
2022/11/13 23:50:00;;;;;;;6.33;3.90;;;;;;;;;;21077724;28;20230;-66
